sensor_id;sensor_type;location;lat;lon;timestamp;temperature;humidity
3954;DHT22;1991;48.682;9.030;2022-08-01T00:01:00;20.20;73.00
3954;DHT22;1991;48.682;9.030;2022-08-01T00:03:25;20.10;73.60
3954;DHT22;1991;48.682;9.030;2022-08-01T00:05:51;20.10;73.90
3954;DHT22;1991;48.682;9.030;2022-08-01T00:08:17;20.10;73.70
3954;DHT22;1991;48.682;9.030;2022-08-01T00:10:42;20.00;74.10
3954;DHT22;1991;48.682;9.030;2022-08-01T00:13:08;20.00;75.00
3954;DHT22;1991;48.682;9.030;2022-08-01T00:15:34;19.90;75.10
3954;DHT22;1991;48.682;9.030;2022-08-01T00:17:59;19.90;75.00
3954;DHT22;1991;48.682;9.030;2022-08-01T00:20:25;19.90;76.40
3954;DHT22;1991;48.682;9.030;2022-08-01T00:22:51;19.90;76.40
3954;DHT22;1991;48.682;9.030;2022-08-01T00:25:16;19.80;76.40
3954;DHT22;1991;48.682;9.030;2022-08-01T00:27:42;19.80;76.60
3954;DHT22;1991;48.682;9.030;2022-08-01T00:30:08;19.80;77.00
3954;DHT22;1991;48.682;9.030;2022-08-01T00:32:33;19.70;77.70
3954;DHT22;1991;48.682;9.030;2022-08-01T00:34:59;19.70;77.90
3954;DHT22;1991;48.682;9.030;2022-08-01T00:37:24;19.70;77.50
3954;DHT22;1991;48.682;9.030;2022-08-01T00:39:50;19.70;77.90
3954;DHT22;1991;48.682;9.030;2022-08-01T00:42:16;19.60;78.30
3954;DHT22;1991;48.682;9.030;2022-08-01T00:44:41;19.60;78.70
3954;DHT22;1991;48.682;9.030;2022-08-01T00:47:07;19.60;78.90
3954;DHT22;1991;48.682;9.030;2022-08-01T00:49:33;19.50;79.00
3954;DHT22;1991;48.682;9.030;2022-08-01T00:51:59;19.50;79.50
3954;DHT22;1991;48.682;9.030;2022-08-01T00:54:26;19.40;79.80
3954;DHT22;1991;48.682;9.030;2022-08-01T00:56:52;19.40;80.00
3954;DHT22;1991;48.682;9.030;2022-08-01T00:59:18;19.40;80.40
3954;DHT22;1991;48.682;9.030;2022-08-01T01:01:46;19.40;80.60
3954;DHT22;1991;48.682;9.030;2022-08-01T01:04:11;19.40;80.60
3954;DHT22;1991;48.682;9.030;2022-08-01T01:06:57;19.30;81.70
3954;DHT22;1991;48.682;9.030;2022-08-01T01:09:57;19.30;81.70
3954;DHT22;1991;48.682;9.030;2022-08-01T01:12:44;19.30;82.40
3954;DHT22;1991;48.682;9.030;2022-08-01T01:17:52;19.20;82.90
3954;DHT22;1991;48.682;9.030;2022-08-01T01:20:24;19.20;83.30
3954;DHT22;1991;48.682;9.030;2022-08-01T01:28:54;19.10;84.20
3954;DHT22;1991;48.682;9.030;2022-08-01T01:31:22;19.10;85.10
3954;DHT22;1991;48.682;9.030;2022-08-01T01:33:49;19.10;85.60
3954;DHT22;1991;48.682;9.030;2022-08-01T01:36:18;19.00;85.90
3954;DHT22;1991;48.682;9.030;2022-08-01T01:38:45;19.10;86.30
3954;DHT22;1991;48.682;9.030;2022-08-01T01:41:13;19.10;86.50
3954;DHT22;1991;48.682;9.030;2022-08-01T01:43:40;19.00;87.10
3954;DHT22;1991;48.682;9.030;2022-08-01T01:46:07;19.00;87.30
3954;DHT22;1991;48.682;9.030;2022-08-01T01:48:35;19.00;87.40
3954;DHT22;1991;48.682;9.030;2022-08-01T01:51:03;19.00;88.30
3954;DHT22;1991;48.682;9.030;2022-08-01T01:53:31;18.90;88.40
3954;DHT22;1991;48.682;9.030;2022-08-01T01:55:59;18.90;89.80
3954;DHT22;1991;48.682;9.030;2022-08-01T01:58:27;18.90;90.00
3954;DHT22;1991;48.682;9.030;2022-08-01T02:00:55;18.90;90.10
3954;DHT22;1991;48.682;9.030;2022-08-01T02:03:22;18.90;90.20
3954;DHT22;1991;48.682;9.030;2022-08-01T02:05:51;18.80;90.40
3954;DHT22;1991;48.682;9.030;2022-08-01T02:08:20;18.80;90.70
3954;DHT22;1991;48.682;9.030;2022-08-01T02:10:46;18.80;90.80
3954;DHT22;1991;48.682;9.030;2022-08-01T02:13:33;18.80;90.90
3954;DHT22;1991;48.682;9.030;2022-08-01T02:16:00;18.80;91.00
3954;DHT22;1991;48.682;9.030;2022-08-01T02:18:26;18.80;91.50
3954;DHT22;1991;48.682;9.030;2022-08-01T02:20:53;18.80;91.40
3954;DHT22;1991;48.682;9.030;2022-08-01T02:23:20;18.80;91.60
3954;DHT22;1991;48.682;9.030;2022-08-01T02:25:50;18.80;91.60
3954;DHT22;1991;48.682;9.030;2022-08-01T02:28:23;18.80;91.80
3954;DHT22;1991;48.682;9.030;2022-08-01T02:30:54;18.80;91.90
3954;DHT22;1991;48.682;9.030;2022-08-01T02:33:24;18.80;92.20
3954;DHT22;1991;48.682;9.030;2022-08-01T02:35:55;18.70;93.10
3954;DHT22;1991;48.682;9.030;2022-08-01T02:38:25;18.70;93.10
3954;DHT22;1991;48.682;9.030;2022-08-01T02:40:53;18.70;93.30
3954;DHT22;1991;48.682;9.030;2022-08-01T02:43:22;18.70;93.60
3954;DHT22;1991;48.682;9.030;2022-08-01T02:45:53;18.70;93.50
3954;DHT22;1991;48.682;9.030;2022-08-01T02:48:20;18.70;93.90
3954;DHT22;1991;48.682;9.030;2022-08-01T02:50:51;18.70;94.10
3954;DHT22;1991;48.682;9.030;2022-08-01T02:53:20;18.70;94.50
3954;DHT22;1991;48.682;9.030;2022-08-01T02:55:47;18.70;94.60
3954;DHT22;1991;48.682;9.030;2022-08-01T02:58:19;18.70;94.80
3954;DHT22;1991;48.682;9.030;2022-08-01T03:00:45;18.60;95.00
3954;DHT22;1991;48.682;9.030;2022-08-01T03:03:13;18.60;95.30
3954;DHT22;1991;48.682;9.030;2022-08-01T03:05:39;18.60;95.70
3954;DHT22;1991;48.682;9.030;2022-08-01T03:08:07;18.70;95.80
3954;DHT22;1991;48.682;9.030;2022-08-01T03:10:36;18.70;95.80
3954;DHT22;1991;48.682;9.030;2022-08-01T03:13:04;18.70;95.80
3954;DHT22;1991;48.682;9.030;2022-08-01T03:15:33;18.80;95.90
3954;DHT22;1991;48.682;9.030;2022-08-01T03:18:00;18.80;96.10
3954;DHT22;1991;48.682;9.030;2022-08-01T03:20:27;18.80;96.20
3954;DHT22;1991;48.682;9.030;2022-08-01T03:22:56;18.90;96.30
3954;DHT22;1991;48.682;9.030;2022-08-01T03:25:24;18.90;96.40
3954;DHT22;1991;48.682;9.030;2022-08-01T03:27:54;18.90;96.30
3954;DHT22;1991;48.682;9.030;2022-08-01T03:30:25;18.90;96.50
3954;DHT22;1991;48.682;9.030;2022-08-01T03:32:51;18.90;96.60
3954;DHT22;1991;48.682;9.030;2022-08-01T03:35:17;18.90;96.60
3954;DHT22;1991;48.682;9.030;2022-08-01T03:37:49;18.90;96.60
3954;DHT22;1991;48.682;9.030;2022-08-01T03:40:24;18.90;96.90
3954;DHT22;1991;48.682;9.030;2022-08-01T03:42:58;18.90;96.80
3954;DHT22;1991;48.682;9.030;2022-08-01T03:45:36;18.90;97.00
3954;DHT22;1991;48.682;9.030;2022-08-01T03:48:08;18.90;97.00
3954;DHT22;1991;48.682;9.030;2022-08-01T03:50:36;18.90;97.50
3954;DHT22;1991;48.682;9.030;2022-08-01T03:53:02;18.90;97.60
3954;DHT22;1991;48.682;9.030;2022-08-01T03:55:30;18.80;97.60
3954;DHT22;1991;48.682;9.030;2022-08-01T03:57:57;18.80;97.60
3954;DHT22;1991;48.682;9.030;2022-08-01T04:00:24;18.80;98.10
3954;DHT22;1991;48.682;9.030;2022-08-01T04:02:51;18.80;98.10
3954;DHT22;1991;48.682;9.030;2022-08-01T04:05:17;18.70;98.30
3954;DHT22;1991;48.682;9.030;2022-08-01T04:07:50;18.70;98.50
3954;DHT22;1991;48.682;9.030;2022-08-01T04:10:27;18.70;98.90
3954;DHT22;1991;48.682;9.030;2022-08-01T04:12:53;18.70;99.00
3954;DHT22;1991;48.682;9.030;2022-08-01T04:15:19;18.60;99.20
3954;DHT22;1991;48.682;9.030;2022-08-01T04:17:49;18.50;99.20
3954;DHT22;1991;48.682;9.030;2022-08-01T04:20:14;18.50;99.40
3954;DHT22;1991;48.682;9.030;2022-08-01T04:22:41;18.50;99.60
3954;DHT22;1991;48.682;9.030;2022-08-01T04:25:12;18.50;99.80
3954;DHT22;1991;48.682;9.030;2022-08-01T04:27:43;18.50;99.90
3954;DHT22;1991;48.682;9.030;2022-08-01T04:30:11;18.50;99.90
3954;DHT22;1991;48.682;9.030;2022-08-01T04:32:39;18.50;99.90
3954;DHT22;1991;48.682;9.030;2022-08-01T04:35:07;18.50;99.90
3954;DHT22;1991;48.682;9.030;2022-08-01T04:37:35;18.50;99.90
3954;DHT22;1991;48.682;9.030;2022-08-01T04:40:04;18.50;99.90
3954;DHT22;1991;48.682;9.030;2022-08-01T04:42:32;18.50;99.90
3954;DHT22;1991;48.682;9.030;2022-08-01T04:44:58;18.50;99.90
3954;DHT22;1991;48.682;9.030;2022-08-01T04:47:25;18.50;99.90
3954;DHT22;1991;48.682;9.030;2022-08-01T04:49:51;18.60;99.90
3954;DHT22;1991;48.682;9.030;2022-08-01T04:52:17;18.60;99.90
3954;DHT22;1991;48.682;9.030;2022-08-01T04:54:46;18.60;99.90
3954;DHT22;1991;48.682;9.030;2022-08-01T04:57:14;18.60;99.90
3954;DHT22;1991;48.682;9.030;2022-08-01T04:59:43;18.60;99.90
3954;DHT22;1991;48.682;9.030;2022-08-01T05:04:40;18.70;99.90
3954;DHT22;1991;48.682;9.030;2022-08-01T05:07:06;18.80;99.90
3954;DHT22;1991;48.682;9.030;2022-08-01T05:09:32;18.90;99.90
3954;DHT22;1991;48.682;9.030;2022-08-01T05:11:59;19.00;99.90
3954;DHT22;1991;48.682;9.030;2022-08-01T05:14:27;19.00;99.90
3954;DHT22;1991;48.682;9.030;2022-08-01T05:16:53;19.10;99.90
3954;DHT22;1991;48.682;9.030;2022-08-01T05:19:19;19.20;99.90
3954;DHT22;1991;48.682;9.030;2022-08-01T05:21:44;19.40;99.90
3954;DHT22;1991;48.682;9.030;2022-08-01T05:24:10;19.50;99.90
3954;DHT22;1991;48.682;9.030;2022-08-01T05:26:36;19.60;99.90
3954;DHT22;1991;48.682;9.030;2022-08-01T05:29:02;19.70;99.70
3954;DHT22;1991;48.682;9.030;2022-08-01T05:31:28;19.80;99.20
3954;DHT22;1991;48.682;9.030;2022-08-01T05:33:53;19.80;99.30
3954;DHT22;1991;48.682;9.030;2022-08-01T05:36:19;20.00;99.30
3954;DHT22;1991;48.682;9.030;2022-08-01T05:38:44;20.10;98.60
3954;DHT22;1991;48.682;9.030;2022-08-01T05:41:10;20.20;98.40
3954;DHT22;1991;48.682;9.030;2022-08-01T05:43:36;20.30;98.20
3954;DHT22;1991;48.682;9.030;2022-08-01T05:46:02;20.40;98.00
3954;DHT22;1991;48.682;9.030;2022-08-01T05:48:28;20.60;98.20
3954;DHT22;1991;48.682;9.030;2022-08-01T05:50:54;20.70;97.80
3954;DHT22;1991;48.682;9.030;2022-08-01T05:53:19;20.80;97.60
3954;DHT22;1991;48.682;9.030;2022-08-01T05:55:45;20.90;96.90
3954;DHT22;1991;48.682;9.030;2022-08-01T05:58:10;21.00;96.70
3954;DHT22;1991;48.682;9.030;2022-08-01T06:00:36;21.20;96.60
3954;DHT22;1991;48.682;9.030;2022-08-01T06:03:02;21.40;96.30
3954;DHT22;1991;48.682;9.030;2022-08-01T06:05:27;21.50;96.00
3954;DHT22;1991;48.682;9.030;2022-08-01T06:07:53;21.60;95.20
3954;DHT22;1991;48.682;9.030;2022-08-01T06:10:19;21.70;95.50
3954;DHT22;1991;48.682;9.030;2022-08-01T06:12:45;21.80;94.50
3954;DHT22;1991;48.682;9.030;2022-08-01T06:15:11;21.80;93.90
3954;DHT22;1991;48.682;9.030;2022-08-01T06:17:37;21.80;94.10
3954;DHT22;1991;48.682;9.030;2022-08-01T06:20:03;22.00;93.50
3954;DHT22;1991;48.682;9.030;2022-08-01T06:22:29;22.10;92.20
3954;DHT22;1991;48.682;9.030;2022-08-01T06:24:54;22.30;91.90
3954;DHT22;1991;48.682;9.030;2022-08-01T06:27:20;22.50;91.60
3954;DHT22;1991;48.682;9.030;2022-08-01T06:29:46;22.80;91.00
3954;DHT22;1991;48.682;9.030;2022-08-01T06:32:12;22.90;90.80
3954;DHT22;1991;48.682;9.030;2022-08-01T06:34:37;22.90;90.40
3954;DHT22;1991;48.682;9.030;2022-08-01T06:37:03;23.10;90.50
3954;DHT22;1991;48.682;9.030;2022-08-01T06:39:29;23.10;89.30
3954;DHT22;1991;48.682;9.030;2022-08-01T06:41:54;23.10;89.60
3954;DHT22;1991;48.682;9.030;2022-08-01T06:44:20;23.20;88.90
3954;DHT22;1991;48.682;9.030;2022-08-01T06:46:45;23.20;87.70
3954;DHT22;1991;48.682;9.030;2022-08-01T06:49:11;23.30;86.70
3954;DHT22;1991;48.682;9.030;2022-08-01T06:51:36;23.50;86.10
3954;DHT22;1991;48.682;9.030;2022-08-01T06:54:02;23.80;86.50
3954;DHT22;1991;48.682;9.030;2022-08-01T06:56:28;24.10;84.60
3954;DHT22;1991;48.682;9.030;2022-08-01T06:58:54;24.40;82.90
3954;DHT22;1991;48.682;9.030;2022-08-01T07:01:26;24.40;83.10
3954;DHT22;1991;48.682;9.030;2022-08-01T07:03:52;24.50;81.90
3954;DHT22;1991;48.682;9.030;2022-08-01T07:06:18;24.70;83.20
3954;DHT22;1991;48.682;9.030;2022-08-01T07:08:43;25.00;80.70
3954;DHT22;1991;48.682;9.030;2022-08-01T07:11:09;25.20;79.00
3954;DHT22;1991;48.682;9.030;2022-08-01T07:13:34;25.20;78.00
3954;DHT22;1991;48.682;9.030;2022-08-01T07:16:01;25.50;78.20
3954;DHT22;1991;48.682;9.030;2022-08-01T07:18:27;25.50;78.00
3954;DHT22;1991;48.682;9.030;2022-08-01T07:20:52;25.80;78.10
3954;DHT22;1991;48.682;9.030;2022-08-01T07:23:18;25.70;74.80
3954;DHT22;1991;48.682;9.030;2022-08-01T07:25:43;25.70;75.70
3954;DHT22;1991;48.682;9.030;2022-08-01T07:28:09;25.60;74.80
3954;DHT22;1991;48.682;9.030;2022-08-01T07:30:35;25.70;73.90
3954;DHT22;1991;48.682;9.030;2022-08-01T07:33:01;25.80;73.30
3954;DHT22;1991;48.682;9.030;2022-08-01T07:35:27;26.00;73.90
3954;DHT22;1991;48.682;9.030;2022-08-01T07:37:52;26.20;73.70
3954;DHT22;1991;48.682;9.030;2022-08-01T07:40:19;26.30;72.10
3954;DHT22;1991;48.682;9.030;2022-08-01T07:42:46;26.30;71.70
3954;DHT22;1991;48.682;9.030;2022-08-01T07:45:12;26.30;71.40
3954;DHT22;1991;48.682;9.030;2022-08-01T07:47:38;26.60;72.60
3954;DHT22;1991;48.682;9.030;2022-08-01T07:50:05;26.80;70.80
3954;DHT22;1991;48.682;9.030;2022-08-01T07:52:31;26.70;71.00
3954;DHT22;1991;48.682;9.030;2022-08-01T07:54:57;26.90;70.70
3954;DHT22;1991;48.682;9.030;2022-08-01T07:57:24;27.30;69.80
3954;DHT22;1991;48.682;9.030;2022-08-01T07:59:50;27.30;69.50
3954;DHT22;1991;48.682;9.030;2022-08-01T08:02:16;27.20;68.10
3954;DHT22;1991;48.682;9.030;2022-08-01T08:04:42;27.30;68.30
3954;DHT22;1991;48.682;9.030;2022-08-01T08:07:07;27.80;68.30
3954;DHT22;1991;48.682;9.030;2022-08-01T08:09:33;28.00;67.10
3954;DHT22;1991;48.682;9.030;2022-08-01T08:11:59;28.10;65.10
3954;DHT22;1991;48.682;9.030;2022-08-01T08:14:24;28.30;65.20
3954;DHT22;1991;48.682;9.030;2022-08-01T08:16:50;28.20;63.30
3954;DHT22;1991;48.682;9.030;2022-08-01T08:19:16;27.50;65.20
3954;DHT22;1991;48.682;9.030;2022-08-01T08:21:42;27.60;66.10
3954;DHT22;1991;48.682;9.030;2022-08-01T08:24:08;27.70;65.90
3954;DHT22;1991;48.682;9.030;2022-08-01T08:26:52;27.70;66.00
3954;DHT22;1991;48.682;9.030;2022-08-01T08:29:19;27.90;64.30
3954;DHT22;1991;48.682;9.030;2022-08-01T08:31:45;27.60;64.00
3954;DHT22;1991;48.682;9.030;2022-08-01T08:34:11;27.70;65.60
3954;DHT22;1991;48.682;9.030;2022-08-01T08:36:37;27.60;65.00
3954;DHT22;1991;48.682;9.030;2022-08-01T08:39:03;28.00;65.10
3954;DHT22;1991;48.682;9.030;2022-08-01T08:41:30;28.30;63.50
3954;DHT22;1991;48.682;9.030;2022-08-01T08:43:56;28.50;63.30
3954;DHT22;1991;48.682;9.030;2022-08-01T08:46:25;28.50;62.60
3954;DHT22;1991;48.682;9.030;2022-08-01T08:48:51;29.00;63.40
3954;DHT22;1991;48.682;9.030;2022-08-01T08:51:18;29.60;60.80
3954;DHT22;1991;48.682;9.030;2022-08-01T08:53:45;29.30;58.90
3954;DHT22;1991;48.682;9.030;2022-08-01T08:56:13;29.30;60.60
3954;DHT22;1991;48.682;9.030;2022-08-01T08:58:40;29.10;59.20
3954;DHT22;1991;48.682;9.030;2022-08-01T09:01:06;28.80;60.80
3954;DHT22;1991;48.682;9.030;2022-08-01T09:03:34;28.50;59.80
3954;DHT22;1991;48.682;9.030;2022-08-01T09:06:00;28.20;61.30
3954;DHT22;1991;48.682;9.030;2022-08-01T09:08:25;27.80;61.20
3954;DHT22;1991;48.682;9.030;2022-08-01T09:10:51;27.60;62.50
3954;DHT22;1991;48.682;9.030;2022-08-01T09:13:17;27.40;62.00
3954;DHT22;1991;48.682;9.030;2022-08-01T09:15:50;27.70;62.10
3954;DHT22;1991;48.682;9.030;2022-08-01T09:18:38;27.60;62.50
3954;DHT22;1991;48.682;9.030;2022-08-01T09:23:36;27.50;63.60
3954;DHT22;1991;48.682;9.030;2022-08-01T09:26:05;27.50;62.90
3954;DHT22;1991;48.682;9.030;2022-08-01T09:28:31;27.50;63.70
3954;DHT22;1991;48.682;9.030;2022-08-01T09:30:57;27.60;63.60
3954;DHT22;1991;48.682;9.030;2022-08-01T09:33:23;27.50;63.00
3954;DHT22;1991;48.682;9.030;2022-08-01T09:35:54;27.50;63.40
3954;DHT22;1991;48.682;9.030;2022-08-01T09:38:22;27.80;63.70
3954;DHT22;1991;48.682;9.030;2022-08-01T09:40:55;28.20;62.60
3954;DHT22;1991;48.682;9.030;2022-08-01T09:43:23;28.40;60.80
3954;DHT22;1991;48.682;9.030;2022-08-01T09:45:49;28.20;60.70
3954;DHT22;1991;48.682;9.030;2022-08-01T09:48:15;28.10;62.90
3954;DHT22;1991;48.682;9.030;2022-08-01T09:50:42;28.20;62.60
3954;DHT22;1991;48.682;9.030;2022-08-01T09:53:09;28.30;61.60
3954;DHT22;1991;48.682;9.030;2022-08-01T09:55:35;28.00;61.60
3954;DHT22;1991;48.682;9.030;2022-08-01T09:58:01;27.70;63.10
3954;DHT22;1991;48.682;9.030;2022-08-01T10:00:29;27.50;63.60
3954;DHT22;1991;48.682;9.030;2022-08-01T10:02:55;27.30;63.20
3954;DHT22;1991;48.682;9.030;2022-08-01T10:05:33;27.10;63.80
3954;DHT22;1991;48.682;9.030;2022-08-01T10:08:04;26.90;64.30
3954;DHT22;1991;48.682;9.030;2022-08-01T10:10:31;26.90;65.00
3954;DHT22;1991;48.682;9.030;2022-08-01T10:12:58;27.80;63.20
3954;DHT22;1991;48.682;9.030;2022-08-01T10:15:25;28.90;61.30
3954;DHT22;1991;48.682;9.030;2022-08-01T10:17:57;29.90;58.90
3954;DHT22;1991;48.682;9.030;2022-08-01T10:20:26;31.10;57.60
3954;DHT22;1991;48.682;9.030;2022-08-01T10:22:54;31.70;55.80
3954;DHT22;1991;48.682;9.030;2022-08-01T10:25:21;31.10;55.10
3954;DHT22;1991;48.682;9.030;2022-08-01T10:27:49;30.40;55.00
3954;DHT22;1991;48.682;9.030;2022-08-01T10:30:15;29.80;56.00
3954;DHT22;1991;48.682;9.030;2022-08-01T10:32:41;30.60;57.50
3954;DHT22;1991;48.682;9.030;2022-08-01T10:35:10;31.30;55.90
3954;DHT22;1991;48.682;9.030;2022-08-01T10:37:43;31.50;54.00
3954;DHT22;1991;48.682;9.030;2022-08-01T10:40:11;31.10;53.00
3954;DHT22;1991;48.682;9.030;2022-08-01T10:42:43;30.90;53.20
3954;DHT22;1991;48.682;9.030;2022-08-01T10:45:13;30.20;54.20
3954;DHT22;1991;48.682;9.030;2022-08-01T10:50:41;30.00;56.20
3954;DHT22;1991;48.682;9.030;2022-08-01T10:53:28;30.20;54.70
3954;DHT22;1991;48.682;9.030;2022-08-01T10:56:03;30.70;56.00
3954;DHT22;1991;48.682;9.030;2022-08-01T10:58:33;30.50;54.10
3954;DHT22;1991;48.682;9.030;2022-08-01T11:03:39;29.20;55.90
3954;DHT22;1991;48.682;9.030;2022-08-01T11:06:05;28.70;56.60
3954;DHT22;1991;48.682;9.030;2022-08-01T11:08:31;28.10;57.70
3954;DHT22;1991;48.682;9.030;2022-08-01T11:11:03;27.80;58.90
3954;DHT22;1991;48.682;9.030;2022-08-01T11:14:03;27.60;59.50
3954;DHT22;1991;48.682;9.030;2022-08-01T11:16:41;27.70;59.20
3954;DHT22;1991;48.682;9.030;2022-08-01T11:19:07;28.10;58.60
3954;DHT22;1991;48.682;9.030;2022-08-01T11:29:42;28.70;57.20
3954;DHT22;1991;48.682;9.030;2022-08-01T11:32:24;28.80;57.60
3954;DHT22;1991;48.682;9.030;2022-08-01T11:34:56;30.10;58.20
3954;DHT22;1991;48.682;9.030;2022-08-01T11:37:24;30.10;55.90
3954;DHT22;1991;48.682;9.030;2022-08-01T11:42:41;29.20;55.50
3954;DHT22;1991;48.682;9.030;2022-08-01T11:45:07;28.70;57.40
3954;DHT22;1991;48.682;9.030;2022-08-01T11:47:49;28.50;57.80
3954;DHT22;1991;48.682;9.030;2022-08-01T11:50:34;28.30;58.60
3954;DHT22;1991;48.682;9.030;2022-08-01T11:53:03;28.20;58.60
3954;DHT22;1991;48.682;9.030;2022-08-01T11:55:29;28.10;58.80
3954;DHT22;1991;48.682;9.030;2022-08-01T11:58:06;28.10;59.30
3954;DHT22;1991;48.682;9.030;2022-08-01T12:00:33;27.80;58.20
3954;DHT22;1991;48.682;9.030;2022-08-01T12:03:06;27.60;59.00
3954;DHT22;1991;48.682;9.030;2022-08-01T12:05:33;27.40;59.10
3954;DHT22;1991;48.682;9.030;2022-08-01T12:08:00;27.30;59.50
3954;DHT22;1991;48.682;9.030;2022-08-01T12:10:28;27.20;59.40
3954;DHT22;1991;48.682;9.030;2022-08-01T12:13:00;27.10;59.70
3954;DHT22;1991;48.682;9.030;2022-08-01T12:15:33;27.10;59.30
3954;DHT22;1991;48.682;9.030;2022-08-01T12:18:04;28.00;59.40
3954;DHT22;1991;48.682;9.030;2022-08-01T12:20:32;29.10;57.30
3954;DHT22;1991;48.682;9.030;2022-08-01T12:23:03;29.90;54.20
3954;DHT22;1991;48.682;9.030;2022-08-01T12:25:31;30.30;53.70
3954;DHT22;1991;48.682;9.030;2022-08-01T12:28:07;30.70;52.50
3954;DHT22;1991;48.682;9.030;2022-08-01T12:30:35;31.20;52.20
3954;DHT22;1991;48.682;9.030;2022-08-01T12:33:06;31.10;52.10
3954;DHT22;1991;48.682;9.030;2022-08-01T12:35:33;31.20;53.00
3954;DHT22;1991;48.682;9.030;2022-08-01T12:38:15;30.80;52.30
3954;DHT22;1991;48.682;9.030;2022-08-01T12:40:44;30.20;51.50
3954;DHT22;1991;48.682;9.030;2022-08-01T12:43:16;29.80;52.20
3954;DHT22;1991;48.682;9.030;2022-08-01T12:45:43;29.40;53.00
3954;DHT22;1991;48.682;9.030;2022-08-01T12:48:11;29.00;53.40
3954;DHT22;1991;48.682;9.030;2022-08-01T12:50:39;28.70;55.00
3954;DHT22;1991;48.682;9.030;2022-08-01T12:53:05;29.20;54.10
3954;DHT22;1991;48.682;9.030;2022-08-01T12:55:31;29.60;54.90
3954;DHT22;1991;48.682;9.030;2022-08-01T12:58:08;30.30;53.40
3954;DHT22;1991;48.682;9.030;2022-08-01T13:00:35;30.70;51.90
3954;DHT22;1991;48.682;9.030;2022-08-01T13:03:12;31.50;50.90
3954;DHT22;1991;48.682;9.030;2022-08-01T13:08:16;31.50;50.00
3954;DHT22;1991;48.682;9.030;2022-08-01T13:10:43;31.00;49.60
3954;DHT22;1991;48.682;9.030;2022-08-01T13:13:09;30.50;50.70
3954;DHT22;1991;48.682;9.030;2022-08-01T13:15:38;30.30;51.80
3954;DHT22;1991;48.682;9.030;2022-08-01T13:18:27;29.90;53.30
3954;DHT22;1991;48.682;9.030;2022-08-01T13:21:23;29.40;52.90
3954;DHT22;1991;48.682;9.030;2022-08-01T13:24:09;29.10;54.40
3954;DHT22;1991;48.682;9.030;2022-08-01T13:26:50;28.90;54.60
3954;DHT22;1991;48.682;9.030;2022-08-01T13:29:16;28.80;54.20
3954;DHT22;1991;48.682;9.030;2022-08-01T13:31:43;29.10;55.10
3954;DHT22;1991;48.682;9.030;2022-08-01T13:34:09;30.00;54.60
3954;DHT22;1991;48.682;9.030;2022-08-01T13:36:36;30.80;53.00
3954;DHT22;1991;48.682;9.030;2022-08-01T13:39:01;31.40;50.90
3954;DHT22;1991;48.682;9.030;2022-08-01T13:41:46;31.70;51.00
3954;DHT22;1991;48.682;9.030;2022-08-01T13:44:13;32.00;50.00
3954;DHT22;1991;48.682;9.030;2022-08-01T13:46:39;32.20;50.00
3954;DHT22;1991;48.682;9.030;2022-08-01T13:49:06;31.60;48.40
3954;DHT22;1991;48.682;9.030;2022-08-01T13:51:33;31.00;49.80
3954;DHT22;1991;48.682;9.030;2022-08-01T13:53:58;30.60;50.50
3954;DHT22;1991;48.682;9.030;2022-08-01T13:56:24;30.20;51.70
3954;DHT22;1991;48.682;9.030;2022-08-01T13:58:52;29.70;52.90
3954;DHT22;1991;48.682;9.030;2022-08-01T14:01:17;29.30;53.60
3954;DHT22;1991;48.682;9.030;2022-08-01T14:03:43;29.40;55.00
3954;DHT22;1991;48.682;9.030;2022-08-01T14:06:08;29.40;54.20
3954;DHT22;1991;48.682;9.030;2022-08-01T14:08:34;29.10;53.70
3954;DHT22;1991;48.682;9.030;2022-08-01T14:11:00;29.00;54.10
3954;DHT22;1991;48.682;9.030;2022-08-01T14:13:27;28.90;54.10
3954;DHT22;1991;48.682;9.030;2022-08-01T14:15:53;28.80;54.30
3954;DHT22;1991;48.682;9.030;2022-08-01T14:18:19;28.80;54.00
3954;DHT22;1991;48.682;9.030;2022-08-01T14:20:45;29.20;54.30
3954;DHT22;1991;48.682;9.030;2022-08-01T14:23:10;29.30;54.30
3954;DHT22;1991;48.682;9.030;2022-08-01T14:25:37;29.70;53.30
3954;DHT22;1991;48.682;9.030;2022-08-01T14:28:03;30.20;52.00
3954;DHT22;1991;48.682;9.030;2022-08-01T14:30:29;30.60;52.20
3954;DHT22;1991;48.682;9.030;2022-08-01T14:32:54;30.90;51.30
3954;DHT22;1991;48.682;9.030;2022-08-01T14:35:20;31.00;51.30
3954;DHT22;1991;48.682;9.030;2022-08-01T14:37:46;31.20;50.70
3954;DHT22;1991;48.682;9.030;2022-08-01T14:40:12;31.30;51.20
3954;DHT22;1991;48.682;9.030;2022-08-01T14:42:38;31.20;50.00
3954;DHT22;1991;48.682;9.030;2022-08-01T14:45:05;31.50;50.60
3954;DHT22;1991;48.682;9.030;2022-08-01T14:47:38;31.70;49.30
3954;DHT22;1991;48.682;9.030;2022-08-01T14:50:05;31.50;50.30
3954;DHT22;1991;48.682;9.030;2022-08-01T14:52:33;31.20;50.90
3954;DHT22;1991;48.682;9.030;2022-08-01T14:54:59;31.10;51.40
3954;DHT22;1991;48.682;9.030;2022-08-01T14:57:25;31.10;50.60
3954;DHT22;1991;48.682;9.030;2022-08-01T14:59:50;31.10;51.00
3954;DHT22;1991;48.682;9.030;2022-08-01T15:02:16;31.10;50.60
3954;DHT22;1991;48.682;9.030;2022-08-01T15:04:45;31.00;51.00
3954;DHT22;1991;48.682;9.030;2022-08-01T15:07:11;30.70;51.20
3954;DHT22;1991;48.682;9.030;2022-08-01T15:09:37;30.40;51.60
3954;DHT22;1991;48.682;9.030;2022-08-01T15:12:03;30.30;51.90
3954;DHT22;1991;48.682;9.030;2022-08-01T15:14:28;30.30;52.40
3954;DHT22;1991;48.682;9.030;2022-08-01T15:17:23;30.30;52.40
3954;DHT22;1991;48.682;9.030;2022-08-01T15:19:51;30.10;51.50
3954;DHT22;1991;48.682;9.030;2022-08-01T15:22:18;29.90;52.90
3954;DHT22;1991;48.682;9.030;2022-08-01T15:24:44;29.60;53.00
3954;DHT22;1991;48.682;9.030;2022-08-01T15:27:10;29.30;53.10
3954;DHT22;1991;48.682;9.030;2022-08-01T15:29:36;29.10;53.60
3954;DHT22;1991;48.682;9.030;2022-08-01T15:32:03;29.20;53.70
3954;DHT22;1991;48.682;9.030;2022-08-01T15:34:30;29.00;53.60
3954;DHT22;1991;48.682;9.030;2022-08-01T15:36:56;28.90;53.80
3954;DHT22;1991;48.682;9.030;2022-08-01T15:39:21;28.70;54.20
3954;DHT22;1991;48.682;9.030;2022-08-01T15:41:47;28.70;54.10
3954;DHT22;1991;48.682;9.030;2022-08-01T15:44:13;28.60;54.70
3954;DHT22;1991;48.682;9.030;2022-08-01T15:46:39;28.60;54.70
3954;DHT22;1991;48.682;9.030;2022-08-01T15:49:05;28.60;54.80
3954;DHT22;1991;48.682;9.030;2022-08-01T15:51:32;28.70;54.70
3954;DHT22;1991;48.682;9.030;2022-08-01T15:53:58;28.60;54.50
3954;DHT22;1991;48.682;9.030;2022-08-01T15:56:24;28.50;54.80
3954;DHT22;1991;48.682;9.030;2022-08-01T15:58:50;28.50;54.50
3954;DHT22;1991;48.682;9.030;2022-08-01T16:01:16;28.40;55.10
3954;DHT22;1991;48.682;9.030;2022-08-01T16:03:41;28.20;55.10
3954;DHT22;1991;48.682;9.030;2022-08-01T16:06:07;28.00;55.10
3954;DHT22;1991;48.682;9.030;2022-08-01T16:08:33;27.90;56.80
3954;DHT22;1991;48.682;9.030;2022-08-01T16:10:59;27.80;56.50
3954;DHT22;1991;48.682;9.030;2022-08-01T16:13:24;27.60;56.20
3954;DHT22;1991;48.682;9.030;2022-08-01T16:15:50;27.50;55.90
3954;DHT22;1991;48.682;9.030;2022-08-01T16:18:16;27.40;56.60
3954;DHT22;1991;48.682;9.030;2022-08-01T16:20:41;27.20;56.70
3954;DHT22;1991;48.682;9.030;2022-08-01T16:23:08;27.10;56.80
3954;DHT22;1991;48.682;9.030;2022-08-01T16:25:34;27.00;57.30
3954;DHT22;1991;48.682;9.030;2022-08-01T16:27:59;27.00;57.60
3954;DHT22;1991;48.682;9.030;2022-08-01T16:30:26;26.90;57.90
3954;DHT22;1991;48.682;9.030;2022-08-01T16:32:52;26.90;58.10
3954;DHT22;1991;48.682;9.030;2022-08-01T16:35:18;26.80;58.30
3954;DHT22;1991;48.682;9.030;2022-08-01T16:37:43;26.80;58.00
3954;DHT22;1991;48.682;9.030;2022-08-01T16:40:09;26.70;58.00